sensor_id;sensor_type;location;lat;lon;timestamp;P1;durP1;ratioP1;P2;durP2;ratioP2
66597;SDS011;57424;53.128;6.406;2023-05-07T00:00:19;4.32;;;3.17;;
66597;SDS011;57424;53.128;6.406;2023-05-07T00:02:45;3.53;;;3.20;;
66597;SDS011;57424;53.128;6.406;2023-05-07T00:05:11;4.97;;;3.58;;
66597;SDS011;57424;53.128;6.406;2023-05-07T00:07:37;5.00;;;3.78;;
66597;SDS011;57424;53.128;6.406;2023-05-07T00:10:03;4.55;;;3.05;;
66597;SDS011;57424;53.128;6.406;2023-05-07T00:12:31;4.32;;;3.58;;
66597;SDS011;57424;53.128;6.406;2023-05-07T00:14:58;4.72;;;3.40;;
66597;SDS011;57424;53.128;6.406;2023-05-07T00:17:24;3.97;;;3.40;;
66597;SDS011;57424;53.128;6.406;2023-05-07T00:19:50;5.68;;;3.10;;
66597;SDS011;57424;53.128;6.406;2023-05-07T00:22:15;4.35;;;3.42;;
66597;SDS011;57424;53.128;6.406;2023-05-07T00:24:41;5.20;;;3.50;;
66597;SDS011;57424;53.128;6.406;2023-05-07T00:27:07;4.15;;;3.40;;
66597;SDS011;57424;53.128;6.406;2023-05-07T00:29:32;4.32;;;3.38;;
66597;SDS011;57424;53.128;6.406;2023-05-07T00:31:58;4.00;;;3.60;;
66597;SDS011;57424;53.128;6.406;2023-05-07T00:34:24;4.13;;;3.55;;
66597;SDS011;57424;53.128;6.406;2023-05-07T00:36:49;4.63;;;3.30;;
66597;SDS011;57424;53.128;6.406;2023-05-07T00:39:15;3.78;;;3.38;;
66597;SDS011;57424;53.128;6.406;2023-05-07T00:41:40;4.30;;;3.88;;
66597;SDS011;57424;53.128;6.406;2023-05-07T00:44:06;4.78;;;3.63;;
66597;SDS011;57424;53.128;6.406;2023-05-07T00:46:31;3.88;;;3.22;;
66597;SDS011;57424;53.128;6.406;2023-05-07T00:48:58;6.65;;;3.47;;
66597;SDS011;57424;53.128;6.406;2023-05-07T00:51:25;6.20;;;3.40;;
66597;SDS011;57424;53.128;6.406;2023-05-07T00:53:52;4.70;;;3.55;;
66597;SDS011;57424;53.128;6.406;2023-05-07T00:56:18;3.80;;;3.40;;
66597;SDS011;57424;53.128;6.406;2023-05-07T00:58:45;4.50;;;3.65;;
66597;SDS011;57424;53.128;6.406;2023-05-07T01:01:11;4.18;;;3.78;;
66597;SDS011;57424;53.128;6.406;2023-05-07T01:03:37;4.35;;;3.65;;
66597;SDS011;57424;53.128;6.406;2023-05-07T01:06:02;5.13;;;3.90;;
66597;SDS011;57424;53.128;6.406;2023-05-07T01:08:29;5.18;;;3.58;;
66597;SDS011;57424;53.128;6.406;2023-05-07T01:10:57;4.22;;;3.42;;
66597;SDS011;57424;53.128;6.406;2023-05-07T01:13:23;5.00;;;3.88;;
66597;SDS011;57424;53.128;6.406;2023-05-07T01:15:49;4.63;;;3.78;;
66597;SDS011;57424;53.128;6.406;2023-05-07T01:18:15;4.93;;;3.90;;
66597;SDS011;57424;53.128;6.406;2023-05-07T01:20:41;4.57;;;3.85;;
66597;SDS011;57424;53.128;6.406;2023-05-07T01:23:07;3.95;;;3.53;;
66597;SDS011;57424;53.128;6.406;2023-05-07T01:25:33;5.13;;;4.22;;
66597;SDS011;57424;53.128;6.406;2023-05-07T01:27:59;5.53;;;4.13;;
66597;SDS011;57424;53.128;6.406;2023-05-07T01:30:26;4.20;;;3.50;;
66597;SDS011;57424;53.128;6.406;2023-05-07T01:32:57;4.60;;;3.67;;
66597;SDS011;57424;53.128;6.406;2023-05-07T01:35:35;4.93;;;3.95;;
66597;SDS011;57424;53.128;6.406;2023-05-07T01:38:06;4.45;;;3.70;;
66597;SDS011;57424;53.128;6.406;2023-05-07T01:40:33;6.22;;;4.18;;
66597;SDS011;57424;53.128;6.406;2023-05-07T01:43:02;4.68;;;4.18;;
66597;SDS011;57424;53.128;6.406;2023-05-07T01:45:28;5.03;;;3.85;;
66597;SDS011;57424;53.128;6.406;2023-05-07T01:47:55;5.38;;;3.72;;
66597;SDS011;57424;53.128;6.406;2023-05-07T01:50:22;5.00;;;3.85;;
66597;SDS011;57424;53.128;6.406;2023-05-07T01:52:50;4.20;;;3.60;;
66597;SDS011;57424;53.128;6.406;2023-05-07T01:55:15;5.53;;;3.63;;
66597;SDS011;57424;53.128;6.406;2023-05-07T01:57:41;4.72;;;4.05;;
66597;SDS011;57424;53.128;6.406;2023-05-07T02:00:07;5.25;;;3.55;;
66597;SDS011;57424;53.128;6.406;2023-05-07T02:02:33;4.65;;;3.97;;
66597;SDS011;57424;53.128;6.406;2023-05-07T02:04:59;5.20;;;3.85;;
66597;SDS011;57424;53.128;6.406;2023-05-07T02:07:26;4.82;;;3.85;;
66597;SDS011;57424;53.128;6.406;2023-05-07T02:09:51;5.90;;;4.07;;
66597;SDS011;57424;53.128;6.406;2023-05-07T02:12:17;5.57;;;4.00;;
66597;SDS011;57424;53.128;6.406;2023-05-07T02:14:42;5.93;;;3.97;;
66597;SDS011;57424;53.128;6.406;2023-05-07T02:17:08;4.68;;;3.72;;
66597;SDS011;57424;53.128;6.406;2023-05-07T02:19:33;4.72;;;4.10;;
66597;SDS011;57424;53.128;6.406;2023-05-07T02:22:00;5.10;;;3.80;;
66597;SDS011;57424;53.128;6.406;2023-05-07T02:24:25;5.50;;;4.03;;
66597;SDS011;57424;53.128;6.406;2023-05-07T02:26:51;4.10;;;3.58;;
66597;SDS011;57424;53.128;6.406;2023-05-07T02:29:16;5.32;;;4.13;;
66597;SDS011;57424;53.128;6.406;2023-05-07T02:31:42;6.32;;;4.38;;
66597;SDS011;57424;53.128;6.406;2023-05-07T02:34:07;4.97;;;3.90;;
66597;SDS011;57424;53.128;6.406;2023-05-07T02:36:33;5.03;;;4.00;;
66597;SDS011;57424;53.128;6.406;2023-05-07T02:38:58;4.90;;;3.80;;
66597;SDS011;57424;53.128;6.406;2023-05-07T02:41:24;4.97;;;4.07;;
66597;SDS011;57424;53.128;6.406;2023-05-07T02:43:49;4.50;;;4.00;;
66597;SDS011;57424;53.128;6.406;2023-05-07T02:46:15;5.35;;;4.00;;
66597;SDS011;57424;53.128;6.406;2023-05-07T02:48:40;5.43;;;4.47;;
66597;SDS011;57424;53.128;6.406;2023-05-07T02:51:06;4.55;;;4.13;;
66597;SDS011;57424;53.128;6.406;2023-05-07T02:53:32;5.78;;;4.75;;
66597;SDS011;57424;53.128;6.406;2023-05-07T02:55:58;7.07;;;3.95;;
66597;SDS011;57424;53.128;6.406;2023-05-07T02:58:25;7.50;;;4.50;;
66597;SDS011;57424;53.128;6.406;2023-05-07T03:00:51;4.82;;;4.07;;
66597;SDS011;57424;53.128;6.406;2023-05-07T03:03:17;5.22;;;4.72;;
66597;SDS011;57424;53.128;6.406;2023-05-07T03:05:43;4.55;;;3.85;;
66597;SDS011;57424;53.128;6.406;2023-05-07T03:08:08;5.35;;;4.55;;
66597;SDS011;57424;53.128;6.406;2023-05-07T03:10:35;5.72;;;4.38;;
66597;SDS011;57424;53.128;6.406;2023-05-07T03:13:01;6.57;;;4.20;;
66597;SDS011;57424;53.128;6.406;2023-05-07T03:15:27;5.15;;;4.28;;
66597;SDS011;57424;53.128;6.406;2023-05-07T03:17:53;4.75;;;4.10;;
66597;SDS011;57424;53.128;6.406;2023-05-07T03:20:19;5.95;;;4.47;;
66597;SDS011;57424;53.128;6.406;2023-05-07T03:22:44;6.88;;;4.85;;
66597;SDS011;57424;53.128;6.406;2023-05-07T03:25:10;5.38;;;4.15;;
66597;SDS011;57424;53.128;6.406;2023-05-07T03:27:36;4.88;;;4.10;;
66597;SDS011;57424;53.128;6.406;2023-05-07T03:30:01;5.25;;;4.43;;
66597;SDS011;57424;53.128;6.406;2023-05-07T03:32:27;5.05;;;4.22;;
66597;SDS011;57424;53.128;6.406;2023-05-07T03:34:53;6.25;;;4.47;;
66597;SDS011;57424;53.128;6.406;2023-05-07T03:37:18;5.80;;;4.78;;
66597;SDS011;57424;53.128;6.406;2023-05-07T03:39:44;5.95;;;4.85;;
66597;SDS011;57424;53.128;6.406;2023-05-07T03:42:10;5.03;;;4.20;;
66597;SDS011;57424;53.128;6.406;2023-05-07T03:44:35;5.75;;;4.20;;
66597;SDS011;57424;53.128;6.406;2023-05-07T03:47:01;6.70;;;4.65;;
66597;SDS011;57424;53.128;6.406;2023-05-07T03:49:27;6.22;;;4.95;;
66597;SDS011;57424;53.128;6.406;2023-05-07T03:51:53;6.70;;;4.53;;
66597;SDS011;57424;53.128;6.406;2023-05-07T03:54:19;5.25;;;4.50;;
66597;SDS011;57424;53.128;6.406;2023-05-07T03:56:44;6.80;;;4.70;;
66597;SDS011;57424;53.128;6.406;2023-05-07T03:59:10;5.70;;;4.70;;
66597;SDS011;57424;53.128;6.406;2023-05-07T04:01:37;6.40;;;4.93;;
66597;SDS011;57424;53.128;6.406;2023-05-07T04:04:03;7.00;;;4.95;;
66597;SDS011;57424;53.128;6.406;2023-05-07T04:06:29;5.88;;;4.70;;
66597;SDS011;57424;53.128;6.406;2023-05-07T04:08:55;7.45;;;5.38;;
66597;SDS011;57424;53.128;6.406;2023-05-07T04:11:20;5.20;;;4.35;;
66597;SDS011;57424;53.128;6.406;2023-05-07T04:13:46;6.65;;;5.13;;
66597;SDS011;57424;53.128;6.406;2023-05-07T04:16:12;6.15;;;5.30;;
66597;SDS011;57424;53.128;6.406;2023-05-07T04:18:38;5.85;;;4.80;;
66597;SDS011;57424;53.128;6.406;2023-05-07T04:21:03;5.72;;;4.68;;
66597;SDS011;57424;53.128;6.406;2023-05-07T04:23:29;6.78;;;5.05;;
66597;SDS011;57424;53.128;6.406;2023-05-07T04:25:55;5.68;;;4.78;;
66597;SDS011;57424;53.128;6.406;2023-05-07T04:28:22;6.65;;;5.03;;
66597;SDS011;57424;53.128;6.406;2023-05-07T04:30:47;6.38;;;5.05;;
66597;SDS011;57424;53.128;6.406;2023-05-07T04:33:13;5.78;;;4.72;;
66597;SDS011;57424;53.128;6.406;2023-05-07T04:35:41;6.03;;;4.97;;
66597;SDS011;57424;53.128;6.406;2023-05-07T04:38:07;5.88;;;5.10;;
66597;SDS011;57424;53.128;6.406;2023-05-07T04:40:33;6.07;;;5.25;;
66597;SDS011;57424;53.128;6.406;2023-05-07T04:43:00;6.10;;;5.07;;
66597;SDS011;57424;53.128;6.406;2023-05-07T04:45:26;5.50;;;4.93;;
66597;SDS011;57424;53.128;6.406;2023-05-07T04:47:51;6.25;;;5.05;;
66597;SDS011;57424;53.128;6.406;2023-05-07T04:50:17;5.82;;;4.70;;
66597;SDS011;57424;53.128;6.406;2023-05-07T04:52:44;7.10;;;5.05;;
66597;SDS011;57424;53.128;6.406;2023-05-07T04:55:10;6.30;;;5.20;;
66597;SDS011;57424;53.128;6.406;2023-05-07T04:57:36;6.72;;;4.95;;
66597;SDS011;57424;53.128;6.406;2023-05-07T05:00:03;5.80;;;4.85;;
66597;SDS011;57424;53.128;6.406;2023-05-07T05:02:29;7.03;;;5.32;;
66597;SDS011;57424;53.128;6.406;2023-05-07T05:04:55;6.82;;;5.45;;
66597;SDS011;57424;53.128;6.406;2023-05-07T05:07:20;6.82;;;5.60;;
66597;SDS011;57424;53.128;6.406;2023-05-07T05:09:46;7.57;;;5.40;;
66597;SDS011;57424;53.128;6.406;2023-05-07T05:12:11;6.88;;;5.32;;
66597;SDS011;57424;53.128;6.406;2023-05-07T05:14:37;6.40;;;5.30;;
66597;SDS011;57424;53.128;6.406;2023-05-07T05:17:02;6.10;;;5.10;;
66597;SDS011;57424;53.128;6.406;2023-05-07T05:19:28;6.30;;;5.35;;
66597;SDS011;57424;53.128;6.406;2023-05-07T05:21:53;7.00;;;5.32;;
66597;SDS011;57424;53.128;6.406;2023-05-07T05:24:19;6.40;;;5.40;;
66597;SDS011;57424;53.128;6.406;2023-05-07T05:26:45;7.35;;;5.30;;
66597;SDS011;57424;53.128;6.406;2023-05-07T05:29:10;6.65;;;5.22;;
66597;SDS011;57424;53.128;6.406;2023-05-07T05:31:36;7.15;;;5.40;;
66597;SDS011;57424;53.128;6.406;2023-05-07T05:34:02;6.35;;;5.30;;
66597;SDS011;57424;53.128;6.406;2023-05-07T05:36:28;6.78;;;5.60;;
66597;SDS011;57424;53.128;6.406;2023-05-07T05:38:54;6.28;;;5.53;;
66597;SDS011;57424;53.128;6.406;2023-05-07T05:41:20;6.65;;;5.25;;
66597;SDS011;57424;53.128;6.406;2023-05-07T05:43:45;7.10;;;5.40;;
66597;SDS011;57424;53.128;6.406;2023-05-07T05:46:11;6.47;;;5.20;;
66597;SDS011;57424;53.128;6.406;2023-05-07T05:48:36;6.80;;;5.47;;
66597;SDS011;57424;53.128;6.406;2023-05-07T05:51:02;6.65;;;5.10;;
66597;SDS011;57424;53.128;6.406;2023-05-07T05:53:28;5.90;;;5.25;;
66597;SDS011;57424;53.128;6.406;2023-05-07T05:55:53;6.55;;;5.50;;
66597;SDS011;57424;53.128;6.406;2023-05-07T05:58:19;7.07;;;5.22;;
66597;SDS011;57424;53.128;6.406;2023-05-07T06:00:45;6.50;;;5.20;;
66597;SDS011;57424;53.128;6.406;2023-05-07T06:03:11;6.05;;;5.18;;
66597;SDS011;57424;53.128;6.406;2023-05-07T06:05:37;6.80;;;5.25;;
66597;SDS011;57424;53.128;6.406;2023-05-07T06:08:03;6.85;;;5.50;;
66597;SDS011;57424;53.128;6.406;2023-05-07T06:10:28;6.10;;;5.32;;
66597;SDS011;57424;53.128;6.406;2023-05-07T06:12:55;6.50;;;5.28;;
66597;SDS011;57424;53.128;6.406;2023-05-07T06:15:20;5.38;;;4.88;;
66597;SDS011;57424;53.128;6.406;2023-05-07T06:17:46;6.97;;;5.57;;
66597;SDS011;57424;53.128;6.406;2023-05-07T06:20:11;6.80;;;5.40;;
66597;SDS011;57424;53.128;6.406;2023-05-07T06:22:37;7.40;;;4.70;;
66597;SDS011;57424;53.128;6.406;2023-05-07T06:25:03;6.50;;;5.28;;
66597;SDS011;57424;53.128;6.406;2023-05-07T06:27:29;7.47;;;5.20;;
66597;SDS011;57424;53.128;6.406;2023-05-07T06:29:54;6.05;;;4.90;;
66597;SDS011;57424;53.128;6.406;2023-05-07T06:32:20;7.80;;;4.88;;
66597;SDS011;57424;53.128;6.406;2023-05-07T06:34:45;6.25;;;4.95;;
66597;SDS011;57424;53.128;6.406;2023-05-07T06:37:11;7.72;;;5.43;;
66597;SDS011;57424;53.128;6.406;2023-05-07T06:39:36;6.65;;;5.57;;
66597;SDS011;57424;53.128;6.406;2023-05-07T06:42:02;10.05;;;5.35;;
66597;SDS011;57424;53.128;6.406;2023-05-07T06:44:29;7.80;;;5.20;;
66597;SDS011;57424;53.128;6.406;2023-05-07T06:46:55;10.32;;;5.00;;
66597;SDS011;57424;53.128;6.406;2023-05-07T06:49:20;6.65;;;5.10;;
66597;SDS011;57424;53.128;6.406;2023-05-07T06:51:46;7.50;;;5.40;;
66597;SDS011;57424;53.128;6.406;2023-05-07T06:54:11;6.25;;;5.30;;
66597;SDS011;57424;53.128;6.406;2023-05-07T06:56:37;6.75;;;5.03;;
66597;SDS011;57424;53.128;6.406;2023-05-07T06:59:03;6.55;;;5.10;;
66597;SDS011;57424;53.128;6.406;2023-05-07T07:01:28;9.68;;;5.43;;
66597;SDS011;57424;53.128;6.406;2023-05-07T07:03:54;7.32;;;5.20;;
66597;SDS011;57424;53.128;6.406;2023-05-07T07:06:20;5.97;;;5.20;;
66597;SDS011;57424;53.128;6.406;2023-05-07T07:08:45;5.57;;;4.82;;
66597;SDS011;57424;53.128;6.406;2023-05-07T07:11:11;7.95;;;5.88;;
66597;SDS011;57424;53.128;6.406;2023-05-07T07:13:37;13.82;;;5.70;;
66597;SDS011;57424;53.128;6.406;2023-05-07T07:16:02;6.78;;;5.40;;
66597;SDS011;57424;53.128;6.406;2023-05-07T07:18:28;6.95;;;5.50;;
66597;SDS011;57424;53.128;6.406;2023-05-07T07:20:54;6.13;;;5.38;;
66597;SDS011;57424;53.128;6.406;2023-05-07T07:23:19;6.80;;;5.57;;
66597;SDS011;57424;53.128;6.406;2023-05-07T07:25:45;7.50;;;5.72;;
66597;SDS011;57424;53.128;6.406;2023-05-07T07:28:11;6.22;;;5.53;;
66597;SDS011;57424;53.128;6.406;2023-05-07T07:30:37;7.70;;;5.63;;
66597;SDS011;57424;53.128;6.406;2023-05-07T07:33:03;6.28;;;5.68;;
66597;SDS011;57424;53.128;6.406;2023-05-07T07:35:30;7.00;;;5.90;;
66597;SDS011;57424;53.128;6.406;2023-05-07T07:37:56;8.02;;;6.00;;
66597;SDS011;57424;53.128;6.406;2023-05-07T07:40:22;6.90;;;5.88;;
66597;SDS011;57424;53.128;6.406;2023-05-07T07:42:48;7.35;;;5.57;;
66597;SDS011;57424;53.128;6.406;2023-05-07T07:45:13;8.00;;;5.80;;
66597;SDS011;57424;53.128;6.406;2023-05-07T07:47:39;8.55;;;5.85;;
66597;SDS011;57424;53.128;6.406;2023-05-07T07:50:05;7.93;;;6.35;;
66597;SDS011;57424;53.128;6.406;2023-05-07T07:52:32;6.95;;;5.97;;
66597;SDS011;57424;53.128;6.406;2023-05-07T07:54:57;7.50;;;6.18;;
66597;SDS011;57424;53.128;6.406;2023-05-07T07:57:23;6.38;;;5.68;;
66597;SDS011;57424;53.128;6.406;2023-05-07T07:59:49;10.50;;;6.10;;
66597;SDS011;57424;53.128;6.406;2023-05-07T08:02:15;8.55;;;5.95;;
66597;SDS011;57424;53.128;6.406;2023-05-07T08:04:41;9.60;;;5.80;;
66597;SDS011;57424;53.128;6.406;2023-05-07T08:07:08;7.50;;;6.22;;
66597;SDS011;57424;53.128;6.406;2023-05-07T08:09:34;7.00;;;5.75;;
66597;SDS011;57424;53.128;6.406;2023-05-07T08:12:00;7.18;;;6.25;;
66597;SDS011;57424;53.128;6.406;2023-05-07T08:14:26;7.47;;;5.95;;
66597;SDS011;57424;53.128;6.406;2023-05-07T08:16:53;7.18;;;5.80;;
66597;SDS011;57424;53.128;6.406;2023-05-07T08:19:19;7.15;;;5.88;;
66597;SDS011;57424;53.128;6.406;2023-05-07T08:21:45;7.43;;;6.50;;
66597;SDS011;57424;53.128;6.406;2023-05-07T08:24:12;8.10;;;6.65;;
66597;SDS011;57424;53.128;6.406;2023-05-07T08:26:39;7.45;;;6.72;;
66597;SDS011;57424;53.128;6.406;2023-05-07T08:29:05;8.52;;;6.43;;
66597;SDS011;57424;53.128;6.406;2023-05-07T08:31:30;7.38;;;6.43;;
66597;SDS011;57424;53.128;6.406;2023-05-07T08:33:57;7.35;;;6.50;;
66597;SDS011;57424;53.128;6.406;2023-05-07T08:36:22;8.57;;;6.72;;
66597;SDS011;57424;53.128;6.406;2023-05-07T08:38:48;9.43;;;6.53;;
66597;SDS011;57424;53.128;6.406;2023-05-07T08:41:14;8.30;;;6.95;;
66597;SDS011;57424;53.128;6.406;2023-05-07T08:43:40;9.77;;;6.90;;
66597;SDS011;57424;53.128;6.406;2023-05-07T08:46:06;9.02;;;6.75;;
66597;SDS011;57424;53.128;6.406;2023-05-07T08:48:35;7.20;;;6.15;;
66597;SDS011;57424;53.128;6.406;2023-05-07T08:51:01;7.10;;;6.40;;
66597;SDS011;57424;53.128;6.406;2023-05-07T08:53:27;10.18;;;7.00;;
66597;SDS011;57424;53.128;6.406;2023-05-07T08:55:52;9.48;;;6.60;;
66597;SDS011;57424;53.128;6.406;2023-05-07T08:58:18;8.60;;;6.63;;
66597;SDS011;57424;53.128;6.406;2023-05-07T09:00:44;10.60;;;6.55;;
66597;SDS011;57424;53.128;6.406;2023-05-07T09:03:10;9.10;;;6.63;;
66597;SDS011;57424;53.128;6.406;2023-05-07T09:05:39;8.48;;;6.50;;
66597;SDS011;57424;53.128;6.406;2023-05-07T09:08:05;7.78;;;6.43;;
66597;SDS011;57424;53.128;6.406;2023-05-07T09:10:32;7.43;;;6.20;;
66597;SDS011;57424;53.128;6.406;2023-05-07T09:12:59;7.40;;;6.10;;
66597;SDS011;57424;53.128;6.406;2023-05-07T09:15:25;8.27;;;5.97;;
66597;SDS011;57424;53.128;6.406;2023-05-07T09:17:51;7.88;;;5.95;;
66597;SDS011;57424;53.128;6.406;2023-05-07T09:20:17;9.27;;;6.80;;
66597;SDS011;57424;53.128;6.406;2023-05-07T09:22:42;8.65;;;6.53;;
66597;SDS011;57424;53.128;6.406;2023-05-07T09:25:09;7.75;;;6.78;;
66597;SDS011;57424;53.128;6.406;2023-05-07T09:27:35;9.40;;;5.95;;
66597;SDS011;57424;53.128;6.406;2023-05-07T09:30:07;8.32;;;6.00;;
66597;SDS011;57424;53.128;6.406;2023-05-07T09:32:36;8.18;;;6.25;;
66597;SDS011;57424;53.128;6.406;2023-05-07T09:35:05;6.90;;;5.82;;
66597;SDS011;57424;53.128;6.406;2023-05-07T09:37:31;6.95;;;6.25;;
66597;SDS011;57424;53.128;6.406;2023-05-07T09:39:57;6.57;;;5.88;;
66597;SDS011;57424;53.128;6.406;2023-05-07T09:42:26;8.27;;;5.88;;
66597;SDS011;57424;53.128;6.406;2023-05-07T09:44:52;7.20;;;6.45;;
66597;SDS011;57424;53.128;6.406;2023-05-07T09:47:18;8.05;;;5.75;;
66597;SDS011;57424;53.128;6.406;2023-05-07T09:49:46;6.73;;;5.53;;
66597;SDS011;57424;53.128;6.406;2023-05-07T09:52:13;6.72;;;6.00;;
66597;SDS011;57424;53.128;6.406;2023-05-07T09:54:39;6.70;;;5.95;;
66597;SDS011;57424;53.128;6.406;2023-05-07T09:57:07;9.70;;;5.95;;
66597;SDS011;57424;53.128;6.406;2023-05-07T09:59:36;6.95;;;5.85;;
66597;SDS011;57424;53.128;6.406;2023-05-07T10:02:03;9.00;;;5.72;;
66597;SDS011;57424;53.128;6.406;2023-05-07T10:04:30;11.18;;;7.00;;
66597;SDS011;57424;53.128;6.406;2023-05-07T10:06:56;7.15;;;5.75;;
66597;SDS011;57424;53.128;6.406;2023-05-07T10:09:23;7.57;;;5.70;;
66597;SDS011;57424;53.128;6.406;2023-05-07T10:11:51;6.80;;;5.65;;
66597;SDS011;57424;53.128;6.406;2023-05-07T10:14:17;7.30;;;6.38;;
66597;SDS011;57424;53.128;6.406;2023-05-07T10:16:44;8.13;;;5.95;;
66597;SDS011;57424;53.128;6.406;2023-05-07T10:19:10;8.20;;;6.10;;
66597;SDS011;57424;53.128;6.406;2023-05-07T10:21:36;7.40;;;5.75;;
66597;SDS011;57424;53.128;6.406;2023-05-07T10:24:07;7.05;;;5.95;;
66597;SDS011;57424;53.128;6.406;2023-05-07T10:26:39;7.47;;;5.82;;
66597;SDS011;57424;53.128;6.406;2023-05-07T10:29:14;9.52;;;6.70;;
66597;SDS011;57424;53.128;6.406;2023-05-07T10:31:54;6.95;;;5.60;;
66597;SDS011;57424;53.128;6.406;2023-05-07T10:34:23;8.52;;;6.13;;
66597;SDS011;57424;53.128;6.406;2023-05-07T10:36:53;6.90;;;6.00;;
66597;SDS011;57424;53.128;6.406;2023-05-07T10:39:20;7.27;;;6.23;;
66597;SDS011;57424;53.128;6.406;2023-05-07T10:41:46;7.88;;;7.00;;
66597;SDS011;57424;53.128;6.406;2023-05-07T10:44:24;8.15;;;6.40;;
66597;SDS011;57424;53.128;6.406;2023-05-07T10:47:10;8.88;;;6.55;;
66597;SDS011;57424;53.128;6.406;2023-05-07T10:54:38;6.70;;;5.75;;
66597;SDS011;57424;53.128;6.406;2023-05-07T11:00:00;7.45;;;6.32;;
66597;SDS011;57424;53.128;6.406;2023-05-07T11:05:31;8.00;;;6.22;;
66597;SDS011;57424;53.128;6.406;2023-05-07T11:08:01;7.30;;;6.17;;
66597;SDS011;57424;53.128;6.406;2023-05-07T11:13:16;7.75;;;6.40;;
66597;SDS011;57424;53.128;6.406;2023-05-07T11:15:43;6.78;;;5.47;;
66597;SDS011;57424;53.128;6.406;2023-05-07T11:18:16;6.28;;;5.57;;
66597;SDS011;57424;53.128;6.406;2023-05-07T11:28:28;7.43;;;5.90;;
66597;SDS011;57424;53.128;6.406;2023-05-07T11:30:54;8.25;;;6.18;;
66597;SDS011;57424;53.128;6.406;2023-05-07T11:33:21;6.93;;;6.20;;
66597;SDS011;57424;53.128;6.406;2023-05-07T11:35:47;7.78;;;6.18;;
66597;SDS011;57424;53.128;6.406;2023-05-07T11:38:13;6.72;;;6.00;;
66597;SDS011;57424;53.128;6.406;2023-05-07T11:43:20;6.88;;;5.97;;
66597;SDS011;57424;53.128;6.406;2023-05-07T11:45:46;7.07;;;5.75;;
66597;SDS011;57424;53.128;6.406;2023-05-07T11:48:13;8.60;;;5.70;;
66597;SDS011;57424;53.128;6.406;2023-05-07T11:51:00;7.00;;;6.30;;
66597;SDS011;57424;53.128;6.406;2023-05-07T11:53:27;7.57;;;6.75;;
66597;SDS011;57424;53.128;6.406;2023-05-07T11:55:59;9.57;;;6.57;;
66597;SDS011;57424;53.128;6.406;2023-05-07T11:58:25;8.00;;;7.10;;
66597;SDS011;57424;53.128;6.406;2023-05-07T12:00:52;7.05;;;6.28;;
66597;SDS011;57424;53.128;6.406;2023-05-07T12:03:18;7.53;;;6.57;;
66597;SDS011;57424;53.128;6.406;2023-05-07T12:05:45;7.50;;;6.25;;
66597;SDS011;57424;53.128;6.406;2023-05-07T12:08:14;7.68;;;6.22;;
66597;SDS011;57424;53.128;6.406;2023-05-07T12:10:43;9.25;;;6.18;;
66597;SDS011;57424;53.128;6.406;2023-05-07T12:13:16;8.02;;;6.28;;
66597;SDS011;57424;53.128;6.406;2023-05-07T12:15:43;7.30;;;6.57;;
66597;SDS011;57424;53.128;6.406;2023-05-07T12:18:08;8.18;;;6.45;;
66597;SDS011;57424;53.128;6.406;2023-05-07T12:20:36;7.18;;;6.45;;
66597;SDS011;57424;53.128;6.406;2023-05-07T12:23:02;7.05;;;6.35;;
66597;SDS011;57424;53.128;6.406;2023-05-07T12:25:31;7.60;;;6.28;;
66597;SDS011;57424;53.128;6.406;2023-05-07T12:28:00;7.38;;;6.20;;
66597;SDS011;57424;53.128;6.406;2023-05-07T12:30:26;6.82;;;5.93;;
66597;SDS011;57424;53.128;6.406;2023-05-07T12:32:52;8.50;;;6.70;;
66597;SDS011;57424;53.128;6.406;2023-05-07T12:35:25;6.80;;;6.07;;
66597;SDS011;57424;53.128;6.406;2023-05-07T12:37:58;6.75;;;5.80;;
66597;SDS011;57424;53.128;6.406;2023-05-07T12:40:35;7.18;;;6.18;;
66597;SDS011;57424;53.128;6.406;2023-05-07T12:43:01;7.13;;;5.72;;
66597;SDS011;57424;53.128;6.406;2023-05-07T13:20:17;7.82;;;6.32;;
66597;SDS011;57424;53.128;6.406;2023-05-07T13:22:43;10.20;;;6.60;;
66597;SDS011;57424;53.128;6.406;2023-05-07T13:25:08;8.50;;;6.30;;
66597;SDS011;57424;53.128;6.406;2023-05-07T13:27:34;10.20;;;6.53;;
66597;SDS011;57424;53.128;6.406;2023-05-07T13:30:03;8.77;;;6.82;;
66597;SDS011;57424;53.128;6.406;2023-05-07T13:32:29;9.45;;;6.03;;
66597;SDS011;57424;53.128;6.406;2023-05-07T13:34:55;8.07;;;6.57;;
66597;SDS011;57424;53.128;6.406;2023-05-07T13:37:20;9.25;;;6.63;;
66597;SDS011;57424;53.128;6.406;2023-05-07T13:39:46;7.38;;;6.07;;
66597;SDS011;57424;53.128;6.406;2023-05-07T13:42:12;7.65;;;6.80;;
66597;SDS011;57424;53.128;6.406;2023-05-07T13:44:37;7.03;;;6.30;;
66597;SDS011;57424;53.128;6.406;2023-05-07T13:47:03;7.20;;;6.28;;
66597;SDS011;57424;53.128;6.406;2023-05-07T13:49:28;8.52;;;6.38;;
66597;SDS011;57424;53.128;6.406;2023-05-07T13:51:54;6.68;;;5.97;;
66597;SDS011;57424;53.128;6.406;2023-05-07T13:54:20;7.65;;;5.68;;
66597;SDS011;57424;53.128;6.406;2023-05-07T13:56:46;8.55;;;5.80;;
66597;SDS011;57424;53.128;6.406;2023-05-07T13:59:11;6.90;;;5.70;;
66597;SDS011;57424;53.128;6.406;2023-05-07T14:01:39;6.65;;;5.70;;
66597;SDS011;57424;53.128;6.406;2023-05-07T14:04:05;107.68;;;46.60;;
66597;SDS011;57424;53.128;6.406;2023-05-07T14:06:31;182.25;;;72.05;;
66597;SDS011;57424;53.128;6.406;2023-05-07T14:08:56;129.13;;;53.35;;
66597;SDS011;57424;53.128;6.406;2023-05-07T14:11:23;113.82;;;46.45;;
66597;SDS011;57424;53.128;6.406;2023-05-07T14:13:48;121.97;;;53.15;;
66597;SDS011;57424;53.128;6.406;2023-05-07T14:16:14;175.23;;;69.03;;
66597;SDS011;57424;53.128;6.406;2023-05-07T14:18:40;167.57;;;67.95;;
66597;SDS011;57424;53.128;6.406;2023-05-07T14:21:05;165.13;;;69.60;;
66597;SDS011;57424;53.128;6.406;2023-05-07T14:23:31;161.35;;;70.07;;
66597;SDS011;57424;53.128;6.406;2023-05-07T14:25:56;168.75;;;72.40;;
66597;SDS011;57424;53.128;6.406;2023-05-07T14:28:22;151.52;;;67.30;;
66597;SDS011;57424;53.128;6.406;2023-05-07T14:30:48;122.97;;;54.78;;
66597;SDS011;57424;53.128;6.406;2023-05-07T14:33:14;86.57;;;39.75;;
66597;SDS011;57424;53.128;6.406;2023-05-07T14:35:39;69.75;;;32.13;;
66597;SDS011;57424;53.128;6.406;2023-05-07T14:38:05;49.53;;;24.90;;
66597;SDS011;57424;53.128;6.406;2023-05-07T14:40:30;47.72;;;23.67;;
66597;SDS011;57424;53.128;6.406;2023-05-07T14:42:56;43.00;;;21.75;;
66597;SDS011;57424;53.128;6.406;2023-05-07T14:45:22;45.13;;;22.23;;
66597;SDS011;57424;53.128;6.406;2023-05-07T14:47:48;33.85;;;16.98;;
66597;SDS011;57424;53.128;6.406;2023-05-07T14:50:14;31.10;;;15.85;;
66597;SDS011;57424;53.128;6.406;2023-05-07T14:52:39;24.50;;;13.40;;
66597;SDS011;57424;53.128;6.406;2023-05-07T14:55:05;24.48;;;12.10;;
66597;SDS011;57424;53.128;6.406;2023-05-07T14:57:31;22.58;;;11.93;;
66597;SDS011;57424;53.128;6.406;2023-05-07T14:59:59;18.50;;;11.10;;
66597;SDS011;57424;53.128;6.406;2023-05-07T15:02:29;50.40;;;13.27;;
66597;SDS011;57424;53.128;6.406;2023-05-07T15:04:55;20.25;;;10.98;;
66597;SDS011;57424;53.128;6.406;2023-05-07T15:07:20;20.80;;;10.70;;
66597;SDS011;57424;53.128;6.406;2023-05-07T15:09:46;17.45;;;10.35;;
66597;SDS011;57424;53.128;6.406;2023-05-07T15:12:12;18.23;;;9.25;;
66597;SDS011;57424;53.128;6.406;2023-05-07T15:14:38;18.10;;;9.20;;
66597;SDS011;57424;53.128;6.406;2023-05-07T15:17:04;16.45;;;9.05;;
66597;SDS011;57424;53.128;6.406;2023-05-07T15:19:30;12.05;;;8.25;;
66597;SDS011;57424;53.128;6.406;2023-05-07T15:21:59;13.05;;;8.00;;
66597;SDS011;57424;53.128;6.406;2023-05-07T15:24:31;11.70;;;8.15;;
66597;SDS011;57424;53.128;6.406;2023-05-07T15:26:56;12.40;;;8.25;;
66597;SDS011;57424;53.128;6.406;2023-05-07T15:29:26;14.75;;;8.95;;
66597;SDS011;57424;53.128;6.406;2023-05-07T15:31:51;13.05;;;8.50;;
66597;SDS011;57424;53.128;6.406;2023-05-07T15:34:17;10.48;;;7.15;;
66597;SDS011;57424;53.128;6.406;2023-05-07T15:36:43;12.90;;;8.13;;
66597;SDS011;57424;53.128;6.406;2023-05-07T15:39:08;12.90;;;8.07;;